createdAt,value
2023-12-31T00:02:26.857Z,1.10
2023-12-31T00:04:55.351Z,0.95
2023-12-31T00:07:23.816Z,1.52
2023-12-31T00:09:52.518Z,1.13
2023-12-31T00:12:21.213Z,1.30
2023-12-31T00:14:49.880Z,1.48
2023-12-31T00:17:19.828Z,1.10
2023-12-31T00:19:48.176Z,1.40
2023-12-31T00:22:16.907Z,1.10
2023-12-31T00:24:45.275Z,1.38
2023-12-31T00:27:13.753Z,1.48
2023-12-31T00:29:42.080Z,1.20
2023-12-31T00:32:10.544Z,1.27
2023-12-31T00:34:40.518Z,1.05
2023-12-31T00:37:09.219Z,2.08
2023-12-31T00:39:37.653Z,1.23
2023-12-31T00:42:07.270Z,1.48
2023-12-31T00:44:35.609Z,1.10
2023-12-31T00:47:04.070Z,1.38
2023-12-31T00:49:32.539Z,1.10
2023-12-31T00:52:02.447Z,1.70
2023-12-31T00:54:30.875Z,1.42
2023-12-31T00:56:59.563Z,0.80
2023-12-31T00:59:27.920Z,1.23
2023-12-31T01:01:57.413Z,1.38
2023-12-31T01:04:25.717Z,1.48
2023-12-31T01:06:54.184Z,1.10
2023-12-31T01:09:24.027Z,1.30
2023-12-31T01:11:52.406Z,0.98
2023-12-31T01:14:20.734Z,0.95
2023-12-31T01:16:49.175Z,1.35
2023-12-31T01:19:18.557Z,1.20
2023-12-31T01:21:47.458Z,1.55
2023-12-31T01:24:17.373Z,1.23
2023-12-31T01:26:47.277Z,1.45
2023-12-31T01:29:16.150Z,1.65
2023-12-31T01:31:44.569Z,0.68
2023-12-31T01:34:13.036Z,1.25
2023-12-31T01:36:41.756Z,1.48
2023-12-31T01:39:10.973Z,0.80
2023-12-31T01:41:40.015Z,0.63
2023-12-31T01:44:09.929Z,0.95
2023-12-31T01:46:38.723Z,1.17
2023-12-31T01:49:09.385Z,1.23
2023-12-31T01:51:38.110Z,1.70
2023-12-31T01:54:07.832Z,1.05
2023-12-31T01:56:39.824Z,1.40
2023-12-31T01:59:10.246Z,1.30
2023-12-31T02:01:40.206Z,1.17
2023-12-31T02:04:08.871Z,1.10
2023-12-31T02:06:37.568Z,1.50
2023-12-31T02:09:07.660Z,1.50
2023-12-31T02:11:37.740Z,1.42
2023-12-31T02:14:06.165Z,1.15
2023-12-31T02:16:35.924Z,1.48
2023-12-31T02:19:04.312Z,1.60
2023-12-31T02:21:33.128Z,1.67
2023-12-31T02:24:01.743Z,1.40
2023-12-31T02:26:34.159Z,1.30
2023-12-31T02:29:02.925Z,1.00
2023-12-31T02:31:31.554Z,1.30
2023-12-31T02:33:59.907Z,1.55
2023-12-31T02:36:28.335Z,1.80
2023-12-31T02:38:56.713Z,1.58
2023-12-31T02:41:25.136Z,1.60
2023-12-31T02:43:54.968Z,1.52
2023-12-31T02:46:23.314Z,1.30
2023-12-31T02:48:52.119Z,1.65
2023-12-31T02:51:20.685Z,1.30
2023-12-31T02:53:49.158Z,1.38
2023-12-31T02:56:17.601Z,1.35
2023-12-31T02:58:46.214Z,1.50
2023-12-31T03:01:16.608Z,1.58
2023-12-31T03:03:45.077Z,1.30
2023-12-31T03:06:16.893Z,1.20
2023-12-31T03:08:45.221Z,1.40
2023-12-31T03:11:13.984Z,1.67
2023-12-31T03:13:42.300Z,1.30
2023-12-31T03:16:10.765Z,2.03
2023-12-31T03:18:40.600Z,1.70
2023-12-31T03:21:15.253Z,1.50
2023-12-31T03:23:43.608Z,1.48
2023-12-31T03:26:11.975Z,1.70
2023-12-31T03:28:40.336Z,1.80
2023-12-31T03:31:11.038Z,1.40
2023-12-31T03:33:41.138Z,1.40
2023-12-31T03:36:09.743Z,1.67
2023-12-31T03:38:37.987Z,1.40
2023-12-31T03:41:06.881Z,1.52
2023-12-31T03:43:35.402Z,1.13
2023-12-31T03:46:03.675Z,1.60
2023-12-31T03:48:32.599Z,1.13
2023-12-31T03:51:02.507Z,1.02
2023-12-31T03:53:30.885Z,0.90
2023-12-31T03:55:59.423Z,1.00
2023-12-31T03:58:27.967Z,1.52
2023-12-31T04:00:56.238Z,1.80
2023-12-31T04:03:24.717Z,1.27
2023-12-31T04:05:53.748Z,1.25
2023-12-31T04:08:25.990Z,1.17
2023-12-31T04:10:54.323Z,1.23
2023-12-31T04:13:23.656Z,1.13
2023-12-31T04:15:52.160Z,1.23
2023-12-31T04:18:20.810Z,1.42
2023-12-31T04:20:49.266Z,1.33
2023-12-31T04:23:18.011Z,1.40
2023-12-31T04:25:47.833Z,1.35
2023-12-31T04:28:16.445Z,1.10
2023-12-31T04:30:44.822Z,1.48
2023-12-31T04:33:14.592Z,1.20
2023-12-31T04:35:50.907Z,1.25
2023-12-31T04:38:20.229Z,1.50
2023-12-31T04:40:51.425Z,1.23
2023-12-31T04:43:19.969Z,1.33
2023-12-31T04:45:48.687Z,1.65
2023-12-31T04:48:17.328Z,1.65
2023-12-31T04:50:46.753Z,1.38
2023-12-31T04:53:16.905Z,1.52
2023-12-31T04:55:45.391Z,1.33
2023-12-31T04:58:15.286Z,1.15
2023-12-31T05:00:43.595Z,1.42
2023-12-31T05:03:13.885Z,1.30
2023-12-31T05:05:42.379Z,1.50
2023-12-31T05:08:10.801Z,1.08
2023-12-31T05:10:39.360Z,2.10
2023-12-31T05:13:07.654Z,1.55
2023-12-31T05:15:37.469Z,1.33
2023-12-31T05:18:06.535Z,1.63
2023-12-31T05:20:34.996Z,1.42
2023-12-31T05:23:03.502Z,1.83
2023-12-31T05:25:32.068Z,1.55
2023-12-31T05:28:00.378Z,1.52
2023-12-31T05:30:28.829Z,1.40
2023-12-31T05:32:58.615Z,1.13
2023-12-31T05:35:26.964Z,1.52
2023-12-31T05:37:55.322Z,1.58
2023-12-31T05:40:23.707Z,1.35
2023-12-31T05:42:51.934Z,1.98
2023-12-31T05:45:20.417Z,1.30
2023-12-31T05:47:49.197Z,1.55
2023-12-31T05:50:19.097Z,1.48
2023-12-31T05:52:48.748Z,1.77
2023-12-31T05:55:17.227Z,1.67
2023-12-31T05:57:45.568Z,1.70
2023-12-31T06:00:14.668Z,1.52
2023-12-31T06:02:43.069Z,1.95
2023-12-31T06:05:11.713Z,2.30
2023-12-31T06:07:41.616Z,2.05
2023-12-31T06:10:10.906Z,2.03
2023-12-31T06:12:39.172Z,1.73
2023-12-31T06:15:10.435Z,1.33
2023-12-31T06:17:38.995Z,1.88
2023-12-31T06:20:08.564Z,1.40
2023-12-31T06:22:37.492Z,1.17
2023-12-31T06:25:08.295Z,1.48
2023-12-31T06:27:39.343Z,1.25
2023-12-31T06:30:09.157Z,0.95
2023-12-31T06:32:37.690Z,1.17
2023-12-31T06:35:06.778Z,1.60
2023-12-31T06:37:35.038Z,1.63
2023-12-31T06:40:04.470Z,1.33
2023-12-31T06:42:34.184Z,1.13
2023-12-31T06:45:02.721Z,1.52
2023-12-31T06:47:31.008Z,1.27
2023-12-31T06:49:59.348Z,1.10
2023-12-31T06:52:27.715Z,1.02
2023-12-31T06:54:56.370Z,0.70
2023-12-31T06:57:24.637Z,1.00
2023-12-31T06:59:54.428Z,1.15
2023-12-31T07:02:22.739Z,0.90
2023-12-31T07:04:51.161Z,1.23
2023-12-31T07:07:20.912Z,1.00
2023-12-31T07:09:49.598Z,1.45
2023-12-31T07:12:17.870Z,1.40
2023-12-31T07:14:46.116Z,1.25
2023-12-31T07:17:15.946Z,1.02
2023-12-31T07:19:44.422Z,1.02
2023-12-31T07:22:12.904Z,1.60
2023-12-31T07:24:42.050Z,0.90
2023-12-31T07:27:10.766Z,1.25
2023-12-31T07:29:39.030Z,0.75
2023-12-31T07:32:08.089Z,1.00
2023-12-31T07:34:38.075Z,0.98
2023-12-31T07:37:06.489Z,0.80
2023-12-31T07:39:34.892Z,0.90
2023-12-31T07:42:05.063Z,0.80
2023-12-31T07:44:33.846Z,1.15
2023-12-31T07:47:04.792Z,1.00
2023-12-31T07:49:34.440Z,0.88
2023-12-31T07:52:04.632Z,0.63
2023-12-31T07:54:32.927Z,1.02
2023-12-31T07:57:01.921Z,1.23
2023-12-31T07:59:30.422Z,0.80
2023-12-31T08:01:58.942Z,0.88
2023-12-31T08:04:27.585Z,0.90
2023-12-31T08:06:56.189Z,1.33
2023-12-31T08:09:26.047Z,1.00
2023-12-31T08:11:54.527Z,1.08
2023-12-31T08:14:23.165Z,1.10
2023-12-31T08:16:51.461Z,0.90
2023-12-31T08:19:20.045Z,0.90
2023-12-31T08:21:48.584Z,0.95
2023-12-31T08:24:21.475Z,0.77
2023-12-31T08:26:52.515Z,1.30
2023-12-31T08:29:20.849Z,1.00
2023-12-31T08:31:53.907Z,0.63
2023-12-31T08:34:22.617Z,1.17
2023-12-31T08:36:51.029Z,1.20
2023-12-31T08:39:19.400Z,0.85
2023-12-31T08:41:47.877Z,1.05
2023-12-31T08:44:17.553Z,1.40
2023-12-31T08:46:45.942Z,1.00
2023-12-31T08:49:14.516Z,0.90
2023-12-31T08:51:42.995Z,1.00
2023-12-31T08:54:11.255Z,1.08
2023-12-31T08:56:39.550Z,1.17
2023-12-31T08:59:07.900Z,1.40
2023-12-31T09:01:38.006Z,0.80
2023-12-31T09:04:06.878Z,1.15
2023-12-31T09:06:35.219Z,1.35
2023-12-31T09:09:03.847Z,1.40
2023-12-31T09:11:32.536Z,1.08
2023-12-31T09:14:01.068Z,1.30
2023-12-31T09:16:29.836Z,1.27
2023-12-31T09:19:00.210Z,1.50
2023-12-31T09:21:28.652Z,0.85
2023-12-31T09:23:57.153Z,0.80
2023-12-31T09:26:25.640Z,0.93
2023-12-31T09:28:56.655Z,1.08
2023-12-31T09:31:26.543Z,1.00
2023-12-31T09:33:55.060Z,0.80
2023-12-31T09:36:24.813Z,1.15
2023-12-31T09:38:53.120Z,0.93
2023-12-31T09:41:25.150Z,1.33
2023-12-31T09:43:56.344Z,1.27
2023-12-31T09:46:26.041Z,0.82
2023-12-31T09:48:55.454Z,0.93
2023-12-31T09:51:25.824Z,1.00
2023-12-31T09:53:55.053Z,1.20
2023-12-31T09:56:25.169Z,1.30
2023-12-31T09:59:00.736Z,0.80
2023-12-31T10:01:37.092Z,1.40
2023-12-31T10:04:05.633Z,1.30
2023-12-31T10:06:36.348Z,1.33
2023-12-31T10:09:07.267Z,1.23
2023-12-31T10:11:38.997Z,1.13
2023-12-31T10:14:08.516Z,1.27
2023-12-31T10:16:41.927Z,1.40
2023-12-31T10:19:10.423Z,1.38
2023-12-31T10:21:40.362Z,1.50
2023-12-31T10:24:08.708Z,1.52
2023-12-31T10:26:37.793Z,1.55
2023-12-31T10:29:07.012Z,1.50
2023-12-31T10:31:35.570Z,1.00
2023-12-31T10:34:16.563Z,1.38
2023-12-31T10:36:48.604Z,1.75
2023-12-31T10:39:29.811Z,1.70
2023-12-31T10:42:00.991Z,1.70
2023-12-31T10:44:29.818Z,1.35
2023-12-31T10:47:00.958Z,1.20
2023-12-31T10:49:33.294Z,1.08
2023-12-31T10:52:05.221Z,1.20
2023-12-31T10:54:42.173Z,0.95
2023-12-31T10:57:12.308Z,1.48
2023-12-31T10:59:42.857Z,1.30
2023-12-31T11:02:17.222Z,1.10
2023-12-31T11:04:47.633Z,1.70
2023-12-31T11:07:19.810Z,1.30
2023-12-31T11:09:49.898Z,1.45
2023-12-31T11:12:19.648Z,1.35
2023-12-31T11:14:53.138Z,1.00
2023-12-31T11:20:27.413Z,1.40
2023-12-31T11:23:06.215Z,1.45
2023-12-31T11:25:35.062Z,1.50
2023-12-31T11:28:03.592Z,1.20
2023-12-31T11:30:48.523Z,1.55
2023-12-31T11:33:18.611Z,1.80
2023-12-31T11:35:48.102Z,1.48
2023-12-31T11:38:20.066Z,1.75
2023-12-31T11:40:49.459Z,1.17
2023-12-31T11:43:21.188Z,0.80
2023-12-31T11:45:51.280Z,1.48
2023-12-31T11:48:23.309Z,1.52
2023-12-31T11:50:52.443Z,1.30
2023-12-31T11:53:24.685Z,1.23
2023-12-31T11:55:56.191Z,0.85
2023-12-31T11:58:24.835Z,1.45
2023-12-31T12:00:53.945Z,1.40
2023-12-31T12:03:22.492Z,1.40
2023-12-31T12:05:52.482Z,1.13
2023-12-31T12:08:23.160Z,1.83
2023-12-31T12:10:51.938Z,0.85
2023-12-31T12:13:20.391Z,1.52
2023-12-31T12:15:48.687Z,0.75
2023-12-31T12:18:18.766Z,1.50
2023-12-31T12:20:48.412Z,1.30
2023-12-31T12:23:19.553Z,1.25
2023-12-31T12:25:50.015Z,0.80
2023-12-31T12:28:18.840Z,1.40
2023-12-31T12:30:47.131Z,1.38
2023-12-31T12:33:17.123Z,1.30
2023-12-31T12:35:47.069Z,1.73
2023-12-31T12:38:15.407Z,1.30
2023-12-31T12:40:44.146Z,1.52
2023-12-31T12:43:15.911Z,1.15
2023-12-31T12:45:44.696Z,1.48
2023-12-31T12:48:13.234Z,1.35
2023-12-31T12:50:43.930Z,1.25
2023-12-31T12:53:12.336Z,1.45
2023-12-31T12:55:40.603Z,1.40
2023-12-31T12:58:09.167Z,1.38
2023-12-31T13:00:39.105Z,1.05
2023-12-31T13:03:07.823Z,1.08
2023-12-31T13:05:36.383Z,0.85
2023-12-31T13:08:05.859Z,1.30
2023-12-31T13:10:34.286Z,1.40
2023-12-31T13:13:02.698Z,1.17
2023-12-31T13:15:31.174Z,1.40
2023-12-31T13:18:01.264Z,0.73
2023-12-31T13:20:30.113Z,1.40
2023-12-31T13:22:58.421Z,1.42
2023-12-31T13:25:26.849Z,1.08
2023-12-31T13:27:55.223Z,1.08
2023-12-31T13:30:23.667Z,1.67
2023-12-31T13:32:52.164Z,1.20
2023-12-31T13:35:22.106Z,1.60
2023-12-31T13:37:50.633Z,1.40
2023-12-31T13:40:18.929Z,1.00
2023-12-31T13:42:47.641Z,1.38
2023-12-31T13:45:16.073Z,1.42
2023-12-31T13:47:44.614Z,1.52
2023-12-31T13:50:14.117Z,0.98
2023-12-31T13:52:43.963Z,1.15
2023-12-31T13:55:12.267Z,1.30
2023-12-31T13:57:40.751Z,1.08
2023-12-31T14:00:13.591Z,1.25
2023-12-31T14:02:50.095Z,1.15
2023-12-31T14:05:25.426Z,1.17
2023-12-31T14:07:55.412Z,1.58
2023-12-31T14:10:24.369Z,1.52
2023-12-31T14:12:52.828Z,1.65
2023-12-31T14:15:21.665Z,1.40
2023-12-31T14:17:51.432Z,1.08
2023-12-31T14:20:19.977Z,1.50
2023-12-31T14:22:48.545Z,1.63
2023-12-31T14:27:07.412Z,1.30
2023-12-31T14:29:35.913Z,1.38
2023-12-31T14:32:04.385Z,1.33
2023-12-31T14:34:33.304Z,1.60
2023-12-31T14:37:01.842Z,2.03
2023-12-31T14:39:30.091Z,1.92
2023-12-31T14:41:58.613Z,1.70
2023-12-31T14:44:28.404Z,1.67
2023-12-31T14:46:56.710Z,1.80
2023-12-31T14:49:25.666Z,2.10
2023-12-31T14:51:55.141Z,1.75
2023-12-31T14:54:23.542Z,1.67
2023-12-31T14:56:51.798Z,1.58
2023-12-31T14:59:20.211Z,1.70
2023-12-31T15:01:49.907Z,1.55
2023-12-31T15:04:18.759Z,1.25
2023-12-31T15:06:47.181Z,1.98
2023-12-31T15:09:16.119Z,1.30
2023-12-31T15:11:46.007Z,1.80
2023-12-31T15:14:14.641Z,1.33
2023-12-31T15:16:43.252Z,1.48
2023-12-31T15:19:15.538Z,1.30
2023-12-31T15:21:44.092Z,1.85
2023-12-31T15:24:12.412Z,1.30
2023-12-31T15:26:43.159Z,1.27
2023-12-31T15:29:11.771Z,1.58
2023-12-31T15:31:41.674Z,1.73
2023-12-31T15:34:10.155Z,1.50
2023-12-31T15:36:40.077Z,1.30
2023-12-31T15:39:15.975Z,1.73
2023-12-31T15:41:44.660Z,1.45
2023-12-31T15:44:14.929Z,0.93
2023-12-31T15:46:44.291Z,1.40
2023-12-31T15:49:12.944Z,1.55
2023-12-31T15:51:42.912Z,1.33
2023-12-31T15:54:14.376Z,1.15
2023-12-31T15:56:43.523Z,1.25
2023-12-31T15:59:12.352Z,1.48
2023-12-31T16:01:40.850Z,1.58
2023-12-31T16:04:09.441Z,0.45
2023-12-31T16:06:38.088Z,1.45
2023-12-31T16:09:09.324Z,2.22
2023-12-31T16:11:37.870Z,1.95
2023-12-31T16:14:08.741Z,1.75
2023-12-31T16:16:37.298Z,1.70
2023-12-31T16:19:07.226Z,1.85
2023-12-31T16:21:35.918Z,0.98
2023-12-31T16:24:04.599Z,1.80
2023-12-31T16:26:34.619Z,1.33
2023-12-31T16:29:04.355Z,1.00
2023-12-31T16:31:32.953Z,1.40
2023-12-31T16:34:02.814Z,1.50
2023-12-31T16:36:33.414Z,1.98
2023-12-31T16:39:03.270Z,1.10
2023-12-31T16:41:32.444Z,1.85
2023-12-31T16:44:02.328Z,2.55
2023-12-31T16:46:30.978Z,3.38
2023-12-31T16:48:59.421Z,2.78
2023-12-31T16:51:30.693Z,1.05
2023-12-31T16:54:00.142Z,0.90
2023-12-31T16:56:28.930Z,1.27
2023-12-31T16:58:57.461Z,0.55
2023-12-31T17:01:27.923Z,2.08
2023-12-31T17:03:56.270Z,2.05
2023-12-31T17:06:24.674Z,2.40
2023-12-31T17:08:53.080Z,1.48
2023-12-31T17:11:22.161Z,2.25
2023-12-31T17:13:50.600Z,2.10
2023-12-31T17:16:19.127Z,3.67
2023-12-31T17:18:49.571Z,1.02
2023-12-31T17:21:18.307Z,1.17
2023-12-31T17:23:46.688Z,1.00
2023-12-31T17:26:19.309Z,1.00
2023-12-31T17:31:15.688Z,1.05
2023-12-31T17:33:43.950Z,0.98
2023-12-31T17:36:14.432Z,1.83
2023-12-31T17:38:43.579Z,1.63
2023-12-31T17:41:13.358Z,1.58
2023-12-31T17:43:41.633Z,1.42
2023-12-31T17:46:09.904Z,1.40
2023-12-31T17:48:39.568Z,2.17
2023-12-31T17:51:08.129Z,2.88
2023-12-31T17:53:36.422Z,2.55
2023-12-31T17:56:05.249Z,2.40
2023-12-31T17:58:33.584Z,2.88
2023-12-31T18:01:02.785Z,2.70
2023-12-31T18:03:31.119Z,2.95
2023-12-31T18:06:00.886Z,3.08
2023-12-31T18:08:29.142Z,2.90
2023-12-31T18:10:57.538Z,3.05
2023-12-31T18:13:25.910Z,3.17
2023-12-31T18:15:54.219Z,3.75
2023-12-31T18:18:23.004Z,5.00
2023-12-31T18:20:51.368Z,4.82
2023-12-31T18:23:21.427Z,6.72
2023-12-31T18:25:49.748Z,10.18
2023-12-31T18:28:18.085Z,7.00
2023-12-31T18:30:47.810Z,7.55
2023-12-31T18:33:18.212Z,7.28
2023-12-31T18:35:47.309Z,7.00
2023-12-31T18:38:15.726Z,7.72
2023-12-31T18:40:45.866Z,7.28
2023-12-31T18:43:15.228Z,6.55
2023-12-31T18:45:43.768Z,6.32
2023-12-31T18:48:12.530Z,7.70
2023-12-31T18:50:41.059Z,9.18
2023-12-31T18:53:09.568Z,6.45
2023-12-31T18:55:38.119Z,9.63
2023-12-31T18:58:08.200Z,10.82
2023-12-31T19:00:37.131Z,11.68
2023-12-31T19:03:06.527Z,12.18
2023-12-31T19:05:35.409Z,11.68
2023-12-31T19:08:04.315Z,9.98
2023-12-31T19:10:32.962Z,7.65
2023-12-31T19:13:01.773Z,8.27
2023-12-31T19:15:31.889Z,7.38
2023-12-31T19:18:00.620Z,7.20
2023-12-31T19:20:29.058Z,6.60
2023-12-31T19:22:57.647Z,6.35
2023-12-31T19:25:26.158Z,6.20
2023-12-31T19:27:54.681Z,4.63
2023-12-31T19:30:23.374Z,1.77
2023-12-31T19:32:53.359Z,1.95
2023-12-31T19:35:21.653Z,2.33
2023-12-31T19:37:52.173Z,2.10
2023-12-31T19:40:21.864Z,2.03
2023-12-31T19:43:00.966Z,2.15
2023-12-31T19:45:38.674Z,1.48
2023-12-31T19:48:09.550Z,1.83
2023-12-31T19:50:37.964Z,2.20
2023-12-31T19:53:06.640Z,1.50
2023-12-31T19:55:35.237Z,1.60
2023-12-31T19:58:03.546Z,1.88
2023-12-31T20:00:31.955Z,3.00
2023-12-31T20:03:00.338Z,2.88
2023-12-31T20:05:30.269Z,2.38
2023-12-31T20:07:59.332Z,1.05
2023-12-31T20:10:28.061Z,3.47
2023-12-31T20:12:56.681Z,1.77
2023-12-31T20:15:25.091Z,1.30
2023-12-31T20:17:54.318Z,1.48
2023-12-31T20:20:22.800Z,0.82
2023-12-31T20:22:52.544Z,1.45
2023-12-31T20:25:21.287Z,1.10
2023-12-31T20:27:49.856Z,0.95
2023-12-31T20:30:18.366Z,1.50
2023-12-31T20:32:46.864Z,0.90
2023-12-31T20:35:16.251Z,1.05
2023-12-31T20:37:44.688Z,0.90
2023-12-31T20:40:16.080Z,0.85
2023-12-31T20:42:44.504Z,1.38
2023-12-31T20:45:14.452Z,1.27
2023-12-31T20:47:44.359Z,1.88
2023-12-31T20:50:14.105Z,2.67
2023-12-31T20:52:43.326Z,1.50
2023-12-31T20:55:12.596Z,1.17
2023-12-31T20:57:42.403Z,1.48
2023-12-31T21:00:11.665Z,1.20
2023-12-31T21:02:40.085Z,2.22
2023-12-31T21:05:10.685Z,2.25
2023-12-31T21:07:39.434Z,1.23
2023-12-31T21:10:08.823Z,1.70
2023-12-31T21:12:37.388Z,1.23
2023-12-31T21:15:08.513Z,1.98
2023-12-31T21:17:37.136Z,1.33
2023-12-31T21:20:06.233Z,1.15
2023-12-31T21:22:34.890Z,1.50
2023-12-31T21:25:03.653Z,1.40
2023-12-31T21:27:33.474Z,0.68
2023-12-31T21:30:02.158Z,0.80
2023-12-31T21:32:32.083Z,0.82
2023-12-31T21:35:00.587Z,1.00
2023-12-31T21:37:29.037Z,1.20
2023-12-31T21:39:57.298Z,1.20
2023-12-31T21:42:26.291Z,0.98
2023-12-31T21:44:54.658Z,1.08
2023-12-31T21:47:22.865Z,1.77
2023-12-31T21:49:52.619Z,1.20
2023-12-31T21:52:21.023Z,1.60
2023-12-31T21:54:49.984Z,1.15
2023-12-31T21:57:24.275Z,1.17
2023-12-31T21:59:53.606Z,0.90
2023-12-31T22:02:22.647Z,4.00
2023-12-31T22:04:52.547Z,1.90
2023-12-31T22:07:21.049Z,1.58
2023-12-31T22:09:49.404Z,1.30
2023-12-31T22:12:18.020Z,1.13
2023-12-31T22:14:46.342Z,1.35
2023-12-31T22:17:19.763Z,1.65
2023-12-31T22:19:50.183Z,1.10
2023-12-31T22:22:20.089Z,1.70
2023-12-31T22:24:48.437Z,2.45
2023-12-31T22:27:16.913Z,1.60
2023-12-31T22:29:45.849Z,2.20
2023-12-31T22:32:14.185Z,1.70
2023-12-31T22:34:42.611Z,1.58
2023-12-31T22:37:11.586Z,1.17
2023-12-31T22:39:41.881Z,1.48
2023-12-31T22:42:10.329Z,1.30
2023-12-31T22:44:38.594Z,1.70
2023-12-31T22:47:07.105Z,1.17
2023-12-31T22:49:35.445Z,1.33
2023-12-31T22:52:03.988Z,2.70
2023-12-31T22:54:32.231Z,1.58
2023-12-31T22:57:02.053Z,1.85
2023-12-31T22:59:30.357Z,2.78
2023-12-31T23:01:58.834Z,3.65
2023-12-31T23:04:27.124Z,9.13
2023-12-31T23:06:55.493Z,15.95
2023-12-31T23:09:23.836Z,21.30
2023-12-31T23:11:52.222Z,24.38
2023-12-31T23:14:22.337Z,12.50
2023-12-31T23:16:50.785Z,18.60
2023-12-31T23:19:19.099Z,25.65
2023-12-31T23:21:47.499Z,25.15
2023-12-31T23:24:16.205Z,21.98
2023-12-31T23:26:44.614Z,19.02
2023-12-31T23:29:12.935Z,19.55
2023-12-31T23:31:42.682Z,14.98
2023-12-31T23:34:10.996Z,13.38
2023-12-31T23:36:46.693Z,16.23
2023-12-31T23:41:47.969Z,12.07
2023-12-31T23:44:20.871Z,13.27
2023-12-31T23:46:52.966Z,14.80
2023-12-31T23:49:21.300Z,17.05
2023-12-31T23:51:49.652Z,16.63
2023-12-31T23:54:17.986Z,32.90
2023-12-31T23:56:46.652Z,10.23
2023-12-31T23:59:15.186Z,9.38
